sensor_id;sensor_type;location;lat;lon;timestamp;temperature;humidity
8856;DHT22;4464;50.882;4.730;2022-09-17T00:01:25;10.40;99.90
8856;DHT22;4464;50.882;4.730;2022-09-17T00:03:56;10.50;99.90
8856;DHT22;4464;50.882;4.730;2022-09-17T00:06:29;10.50;99.90
8856;DHT22;4464;50.882;4.730;2022-09-17T00:08:55;10.50;99.90
8856;DHT22;4464;50.882;4.730;2022-09-17T00:11:27;10.50;99.90
8856;DHT22;4464;50.882;4.730;2022-09-17T00:13:58;10.50;99.90
8856;DHT22;4464;50.882;4.730;2022-09-17T00:16:31;10.60;99.90
8856;DHT22;4464;50.882;4.730;2022-09-17T00:18:58;10.60;99.90
8856;DHT22;4464;50.882;4.730;2022-09-17T00:21:27;10.60;99.90
8856;DHT22;4464;50.882;4.730;2022-09-17T00:23:59;10.60;99.90
8856;DHT22;4464;50.882;4.730;2022-09-17T00:26:25;10.60;99.90
8856;DHT22;4464;50.882;4.730;2022-09-17T00:28:55;10.60;99.90
8856;DHT22;4464;50.882;4.730;2022-09-17T00:31:22;10.50;99.90
8856;DHT22;4464;50.882;4.730;2022-09-17T00:33:51;10.60;99.90
8856;DHT22;4464;50.882;4.730;2022-09-17T00:36:18;10.60;99.90
8856;DHT22;4464;50.882;4.730;2022-09-17T00:38:49;10.60;99.90
8856;DHT22;4464;50.882;4.730;2022-09-17T00:41:19;10.70;99.90
8856;DHT22;4464;50.882;4.730;2022-09-17T00:43:53;10.60;99.90
8856;DHT22;4464;50.882;4.730;2022-09-17T00:46:41;10.60;99.90
8856;DHT22;4464;50.882;4.730;2022-09-17T00:49:22;10.60;99.90
8856;DHT22;4464;50.882;4.730;2022-09-17T00:52:09;10.60;99.90
8856;DHT22;4464;50.882;4.730;2022-09-17T00:54:38;10.60;99.90
8856;DHT22;4464;50.882;4.730;2022-09-17T00:57:04;10.50;99.90
8856;DHT22;4464;50.882;4.730;2022-09-17T00:59:30;10.60;99.90
8856;DHT22;4464;50.882;4.730;2022-09-17T01:01:58;10.60;99.90
8856;DHT22;4464;50.882;4.730;2022-09-17T01:04:25;10.60;99.90
8856;DHT22;4464;50.882;4.730;2022-09-17T01:18:06;10.60;99.90
8856;DHT22;4464;50.882;4.730;2022-09-17T01:31:53;10.60;99.90
8856;DHT22;4464;50.882;4.730;2022-09-17T01:37:33;10.50;99.90
8856;DHT22;4464;50.882;4.730;2022-09-17T01:40:10;10.60;99.90
8856;DHT22;4464;50.882;4.730;2022-09-17T01:42:48;10.60;99.90
8856;DHT22;4464;50.882;4.730;2022-09-17T01:45:26;10.50;99.90
8856;DHT22;4464;50.882;4.730;2022-09-17T01:48:05;10.60;99.90
8856;DHT22;4464;50.882;4.730;2022-09-17T01:50:52;10.50;99.90
8856;DHT22;4464;50.882;4.730;2022-09-17T01:53:27;10.50;99.90
8856;DHT22;4464;50.882;4.730;2022-09-17T01:55:56;10.60;99.90
8856;DHT22;4464;50.882;4.730;2022-09-17T01:58:30;10.50;99.90
8856;DHT22;4464;50.882;4.730;2022-09-17T02:01:00;10.60;99.90
8856;DHT22;4464;50.882;4.730;2022-09-17T02:03:55;10.60;99.90
8856;DHT22;4464;50.882;4.730;2022-09-17T02:06:29;10.60;99.90
8856;DHT22;4464;50.882;4.730;2022-09-17T02:09:02;10.60;99.90
8856;DHT22;4464;50.882;4.730;2022-09-17T02:11:36;10.60;99.90
8856;DHT22;4464;50.882;4.730;2022-09-17T02:14:11;10.60;99.90
8856;DHT22;4464;50.882;4.730;2022-09-17T02:16:42;10.60;99.90
8856;DHT22;4464;50.882;4.730;2022-09-17T02:19:22;10.60;99.90
8856;DHT22;4464;50.882;4.730;2022-09-17T02:25:05;10.70;99.90
8856;DHT22;4464;50.882;4.730;2022-09-17T02:30:19;10.70;99.90
8856;DHT22;4464;50.882;4.730;2022-09-17T02:32:45;10.70;99.90
8856;DHT22;4464;50.882;4.730;2022-09-17T02:35:13;10.70;99.90
8856;DHT22;4464;50.882;4.730;2022-09-17T02:37:43;10.70;99.90
8856;DHT22;4464;50.882;4.730;2022-09-17T02:40:11;10.70;99.90
8856;DHT22;4464;50.882;4.730;2022-09-17T02:45:47;10.70;99.90
8856;DHT22;4464;50.882;4.730;2022-09-17T02:53:32;10.70;99.90
8856;DHT22;4464;50.882;4.730;2022-09-17T02:56:19;10.70;99.90
8856;DHT22;4464;50.882;4.730;2022-09-17T03:01:37;10.80;99.90
8856;DHT22;4464;50.882;4.730;2022-09-17T03:04:07;10.80;99.90
8856;DHT22;4464;50.882;4.730;2022-09-17T03:06:38;10.80;99.90
8856;DHT22;4464;50.882;4.730;2022-09-17T03:09:04;10.80;99.90
8856;DHT22;4464;50.882;4.730;2022-09-17T03:11:30;10.80;99.90
8856;DHT22;4464;50.882;4.730;2022-09-17T03:13:57;10.80;99.90
8856;DHT22;4464;50.882;4.730;2022-09-17T03:16:23;10.70;99.90
8856;DHT22;4464;50.882;4.730;2022-09-17T03:18:49;10.60;99.90
8856;DHT22;4464;50.882;4.730;2022-09-17T03:21:15;10.60;99.90
8856;DHT22;4464;50.882;4.730;2022-09-17T03:23:45;10.50;99.90
8856;DHT22;4464;50.882;4.730;2022-09-17T03:26:13;10.40;99.90
8856;DHT22;4464;50.882;4.730;2022-09-17T03:28:39;10.30;99.90
8856;DHT22;4464;50.882;4.730;2022-09-17T03:31:05;10.20;99.90
8856;DHT22;4464;50.882;4.730;2022-09-17T03:33:32;10.20;99.90
8856;DHT22;4464;50.882;4.730;2022-09-17T03:36:00;10.20;99.90
8856;DHT22;4464;50.882;4.730;2022-09-17T03:38:28;10.30;99.90
8856;DHT22;4464;50.882;4.730;2022-09-17T03:41:01;10.30;99.90
8856;DHT22;4464;50.882;4.730;2022-09-17T03:43:27;10.30;99.90
8856;DHT22;4464;50.882;4.730;2022-09-17T03:45:53;10.30;99.90
8856;DHT22;4464;50.882;4.730;2022-09-17T03:48:22;10.30;99.90
8856;DHT22;4464;50.882;4.730;2022-09-17T03:50:48;10.20;99.90
8856;DHT22;4464;50.882;4.730;2022-09-17T03:53:14;10.20;99.90
8856;DHT22;4464;50.882;4.730;2022-09-17T03:55:40;10.20;99.90
8856;DHT22;4464;50.882;4.730;2022-09-17T03:58:06;10.10;99.90
8856;DHT22;4464;50.882;4.730;2022-09-17T04:00:35;10.10;99.90
8856;DHT22;4464;50.882;4.730;2022-09-17T04:03:04;10.10;99.90
8856;DHT22;4464;50.882;4.730;2022-09-17T04:05:32;10.10;99.90
8856;DHT22;4464;50.882;4.730;2022-09-17T04:07:58;10.10;99.90
8856;DHT22;4464;50.882;4.730;2022-09-17T04:10:26;10.10;99.90
8856;DHT22;4464;50.882;4.730;2022-09-17T04:12:52;10.10;99.90
8856;DHT22;4464;50.882;4.730;2022-09-17T04:15:20;10.10;99.90
8856;DHT22;4464;50.882;4.730;2022-09-17T04:17:46;10.00;99.90
8856;DHT22;4464;50.882;4.730;2022-09-17T04:20:11;10.00;99.90
8856;DHT22;4464;50.882;4.730;2022-09-17T04:22:38;10.00;99.90
8856;DHT22;4464;50.882;4.730;2022-09-17T04:25:06;9.90;99.90
8856;DHT22;4464;50.882;4.730;2022-09-17T04:27:35;9.90;99.90
8856;DHT22;4464;50.882;4.730;2022-09-17T04:30:01;9.90;99.90
8856;DHT22;4464;50.882;4.730;2022-09-17T04:32:27;9.90;99.90
8856;DHT22;4464;50.882;4.730;2022-09-17T04:34:56;10.00;99.90
8856;DHT22;4464;50.882;4.730;2022-09-17T04:37:21;10.00;99.90
8856;DHT22;4464;50.882;4.730;2022-09-17T04:39:50;10.00;99.90
8856;DHT22;4464;50.882;4.730;2022-09-17T04:42:17;10.00;99.90
8856;DHT22;4464;50.882;4.730;2022-09-17T04:44:48;10.00;99.90
8856;DHT22;4464;50.882;4.730;2022-09-17T04:47:14;10.00;99.90
8856;DHT22;4464;50.882;4.730;2022-09-17T04:49:42;10.00;99.90
8856;DHT22;4464;50.882;4.730;2022-09-17T04:52:09;10.00;99.90
8856;DHT22;4464;50.882;4.730;2022-09-17T04:54:35;10.00;99.90
8856;DHT22;4464;50.882;4.730;2022-09-17T04:57:01;10.00;99.90
8856;DHT22;4464;50.882;4.730;2022-09-17T04:59:30;10.10;99.90
8856;DHT22;4464;50.882;4.730;2022-09-17T05:01:56;10.10;99.90
8856;DHT22;4464;50.882;4.730;2022-09-17T05:04:22;10.10;99.90
8856;DHT22;4464;50.882;4.730;2022-09-17T05:06:48;10.10;99.90
8856;DHT22;4464;50.882;4.730;2022-09-17T05:09:14;10.10;99.90
8856;DHT22;4464;50.882;4.730;2022-09-17T05:11:41;10.10;99.90
8856;DHT22;4464;50.882;4.730;2022-09-17T05:14:07;10.10;99.90
8856;DHT22;4464;50.882;4.730;2022-09-17T05:16:32;10.00;99.90
8856;DHT22;4464;50.882;4.730;2022-09-17T05:18:58;10.00;99.90
8856;DHT22;4464;50.882;4.730;2022-09-17T05:21:24;10.00;99.90
8856;DHT22;4464;50.882;4.730;2022-09-17T05:23:50;10.00;99.90
8856;DHT22;4464;50.882;4.730;2022-09-17T05:26:16;10.00;99.90
8856;DHT22;4464;50.882;4.730;2022-09-17T05:28:46;10.00;99.90
8856;DHT22;4464;50.882;4.730;2022-09-17T05:31:12;9.90;99.90
8856;DHT22;4464;50.882;4.730;2022-09-17T05:33:38;9.90;99.90
8856;DHT22;4464;50.882;4.730;2022-09-17T05:36:07;9.90;99.90
8856;DHT22;4464;50.882;4.730;2022-09-17T05:38:35;10.00;99.90
8856;DHT22;4464;50.882;4.730;2022-09-17T05:41:07;10.00;99.90
8856;DHT22;4464;50.882;4.730;2022-09-17T05:43:36;10.10;99.90
8856;DHT22;4464;50.882;4.730;2022-09-17T05:46:04;10.10;99.90
8856;DHT22;4464;50.882;4.730;2022-09-17T05:48:33;10.10;99.90
8856;DHT22;4464;50.882;4.730;2022-09-17T05:51:00;10.20;99.90
8856;DHT22;4464;50.882;4.730;2022-09-17T05:53:28;10.30;99.90
8856;DHT22;4464;50.882;4.730;2022-09-17T05:55:57;10.30;99.90
8856;DHT22;4464;50.882;4.730;2022-09-17T05:58:26;10.40;99.90
8856;DHT22;4464;50.882;4.730;2022-09-17T06:00:52;10.40;99.90
8856;DHT22;4464;50.882;4.730;2022-09-17T06:03:23;10.40;99.90
8856;DHT22;4464;50.882;4.730;2022-09-17T06:05:56;10.40;99.90
8856;DHT22;4464;50.882;4.730;2022-09-17T06:08:23;10.40;99.90
8856;DHT22;4464;50.882;4.730;2022-09-17T06:10:49;10.40;99.90
8856;DHT22;4464;50.882;4.730;2022-09-17T06:13:18;10.50;99.90
8856;DHT22;4464;50.882;4.730;2022-09-17T06:15:53;10.50;99.90
8856;DHT22;4464;50.882;4.730;2022-09-17T06:18:19;10.50;99.90
8856;DHT22;4464;50.882;4.730;2022-09-17T06:20:56;10.60;99.90
8856;DHT22;4464;50.882;4.730;2022-09-17T06:23:25;10.60;99.90
8856;DHT22;4464;50.882;4.730;2022-09-17T06:25:57;10.50;99.90
8856;DHT22;4464;50.882;4.730;2022-09-17T06:28:27;10.60;99.90
8856;DHT22;4464;50.882;4.730;2022-09-17T06:30:59;10.70;99.90
8856;DHT22;4464;50.882;4.730;2022-09-17T06:33:26;10.80;99.90
8856;DHT22;4464;50.882;4.730;2022-09-17T06:35:59;10.80;99.90
8856;DHT22;4464;50.882;4.730;2022-09-17T06:38:30;10.90;99.90
8856;DHT22;4464;50.882;4.730;2022-09-17T06:40:56;10.80;99.90
8856;DHT22;4464;50.882;4.730;2022-09-17T06:43:23;10.80;99.90
8856;DHT22;4464;50.882;4.730;2022-09-17T06:45:53;10.80;99.90
8856;DHT22;4464;50.882;4.730;2022-09-17T06:48:22;10.70;99.90
8856;DHT22;4464;50.882;4.730;2022-09-17T06:50:49;10.80;99.90
8856;DHT22;4464;50.882;4.730;2022-09-17T06:53:14;10.80;99.90
8856;DHT22;4464;50.882;4.730;2022-09-17T06:55:40;10.80;99.90
8856;DHT22;4464;50.882;4.730;2022-09-17T06:58:06;10.90;99.90
8856;DHT22;4464;50.882;4.730;2022-09-17T07:00:34;11.00;99.90
8856;DHT22;4464;50.882;4.730;2022-09-17T07:03:01;11.10;99.90
8856;DHT22;4464;50.882;4.730;2022-09-17T07:05:28;11.20;99.90
8856;DHT22;4464;50.882;4.730;2022-09-17T07:07:54;11.40;99.90
8856;DHT22;4464;50.882;4.730;2022-09-17T07:10:23;11.40;99.90
8856;DHT22;4464;50.882;4.730;2022-09-17T07:12:49;11.50;99.90
8856;DHT22;4464;50.882;4.730;2022-09-17T07:15:14;11.40;99.90
8856;DHT22;4464;50.882;4.730;2022-09-17T07:17:41;11.40;99.90
8856;DHT22;4464;50.882;4.730;2022-09-17T07:20:09;11.40;99.90
8856;DHT22;4464;50.882;4.730;2022-09-17T07:22:37;11.50;99.90
8856;DHT22;4464;50.882;4.730;2022-09-17T07:25:03;11.60;99.90
8856;DHT22;4464;50.882;4.730;2022-09-17T07:27:30;11.70;99.90
8856;DHT22;4464;50.882;4.730;2022-09-17T07:29:56;12.00;99.90
8856;DHT22;4464;50.882;4.730;2022-09-17T07:32:24;12.20;99.90
8856;DHT22;4464;50.882;4.730;2022-09-17T07:34:50;12.20;99.90
8856;DHT22;4464;50.882;4.730;2022-09-17T07:37:18;12.10;99.90
8856;DHT22;4464;50.882;4.730;2022-09-17T07:39:45;12.00;99.90
8856;DHT22;4464;50.882;4.730;2022-09-17T07:42:11;11.90;99.90
8856;DHT22;4464;50.882;4.730;2022-09-17T07:44:37;11.90;99.90
8856;DHT22;4464;50.882;4.730;2022-09-17T07:47:05;11.80;99.90
8856;DHT22;4464;50.882;4.730;2022-09-17T07:49:30;11.90;99.90
8856;DHT22;4464;50.882;4.730;2022-09-17T07:51:56;12.00;99.90
8856;DHT22;4464;50.882;4.730;2022-09-17T07:54:24;12.10;99.90
8856;DHT22;4464;50.882;4.730;2022-09-17T07:56:52;12.10;99.90
8856;DHT22;4464;50.882;4.730;2022-09-17T07:59:18;11.90;99.90
8856;DHT22;4464;50.882;4.730;2022-09-17T08:01:48;11.80;99.90
8856;DHT22;4464;50.882;4.730;2022-09-17T08:04:15;11.80;99.90
8856;DHT22;4464;50.882;4.730;2022-09-17T08:06:46;12.10;99.90
8856;DHT22;4464;50.882;4.730;2022-09-17T08:09:16;12.50;99.90
8856;DHT22;4464;50.882;4.730;2022-09-17T08:11:46;12.60;99.90
8856;DHT22;4464;50.882;4.730;2022-09-17T08:14:13;12.70;99.90
8856;DHT22;4464;50.882;4.730;2022-09-17T08:16:40;12.90;99.90
8856;DHT22;4464;50.882;4.730;2022-09-17T08:19:07;13.10;99.90
8856;DHT22;4464;50.882;4.730;2022-09-17T08:21:35;13.20;99.90
8856;DHT22;4464;50.882;4.730;2022-09-17T08:24:02;13.20;99.90
8856;DHT22;4464;50.882;4.730;2022-09-17T08:26:27;13.40;99.90
8856;DHT22;4464;50.882;4.730;2022-09-17T08:28:54;14.30;99.90
8856;DHT22;4464;50.882;4.730;2022-09-17T08:31:22;14.90;99.90
8856;DHT22;4464;50.882;4.730;2022-09-17T08:33:51;14.90;99.90
8856;DHT22;4464;50.882;4.730;2022-09-17T08:36:18;14.60;99.90
8856;DHT22;4464;50.882;4.730;2022-09-17T08:38:45;13.90;99.90
8856;DHT22;4464;50.882;4.730;2022-09-17T08:44:31;13.30;99.90
8856;DHT22;4464;50.882;4.730;2022-09-17T08:47:03;13.40;99.90
8856;DHT22;4464;50.882;4.730;2022-09-17T09:00:18;13.10;99.90
8856;DHT22;4464;50.882;4.730;2022-09-17T09:05:50;14.10;99.90
8856;DHT22;4464;50.882;4.730;2022-09-17T09:08:37;15.30;99.90
8856;DHT22;4464;50.882;4.730;2022-09-17T09:11:05;16.00;99.90
8856;DHT22;4464;50.882;4.730;2022-09-17T09:13:45;16.10;99.90
8856;DHT22;4464;50.882;4.730;2022-09-17T09:16:22;15.60;99.90
8856;DHT22;4464;50.882;4.730;2022-09-17T09:18:53;15.00;99.90
8856;DHT22;4464;50.882;4.730;2022-09-17T09:21:25;14.30;99.90
8856;DHT22;4464;50.882;4.730;2022-09-17T09:24:25;13.90;99.90
8856;DHT22;4464;50.882;4.730;2022-09-17T09:27:23;13.40;99.90
8856;DHT22;4464;50.882;4.730;2022-09-17T09:32:56;13.10;99.90
8856;DHT22;4464;50.882;4.730;2022-09-17T09:35:28;13.30;99.90
8856;DHT22;4464;50.882;4.730;2022-09-17T09:40:58;13.90;99.90
8856;DHT22;4464;50.882;4.730;2022-09-17T09:43:47;14.80;99.90
8856;DHT22;4464;50.882;4.730;2022-09-17T09:46:36;15.60;99.90
8856;DHT22;4464;50.882;4.730;2022-09-17T09:52:26;15.10;99.90
8856;DHT22;4464;50.882;4.730;2022-09-17T09:55:09;15.30;99.90
8856;DHT22;4464;50.882;4.730;2022-09-17T09:57:44;15.10;99.90
8856;DHT22;4464;50.882;4.730;2022-09-17T10:00:35;14.70;99.90
8856;DHT22;4464;50.882;4.730;2022-09-17T10:05:28;15.60;99.90
8856;DHT22;4464;50.882;4.730;2022-09-17T10:07:56;16.40;99.90
8856;DHT22;4464;50.882;4.730;2022-09-17T10:10:23;16.30;99.90
8856;DHT22;4464;50.882;4.730;2022-09-17T10:13:04;15.70;99.90
8856;DHT22;4464;50.882;4.730;2022-09-17T10:15:30;15.30;99.90
8856;DHT22;4464;50.882;4.730;2022-09-17T10:18:20;14.70;99.90
8856;DHT22;4464;50.882;4.730;2022-09-17T10:23:20;13.60;99.90
8856;DHT22;4464;50.882;4.730;2022-09-17T10:25:47;13.20;99.90
8856;DHT22;4464;50.882;4.730;2022-09-17T10:28:49;12.80;99.90
8856;DHT22;4464;50.882;4.730;2022-09-17T10:31:16;12.40;99.90
8856;DHT22;4464;50.882;4.730;2022-09-17T10:34:00;12.30;99.90
8856;DHT22;4464;50.882;4.730;2022-09-17T10:36:39;12.20;99.90
8856;DHT22;4464;50.882;4.730;2022-09-17T10:42:16;11.90;99.90
8856;DHT22;4464;50.882;4.730;2022-09-17T10:44:56;11.70;99.90
8856;DHT22;4464;50.882;4.730;2022-09-17T10:47:39;11.50;99.90
8856;DHT22;4464;50.882;4.730;2022-09-17T10:50:20;11.40;99.90
8856;DHT22;4464;50.882;4.730;2022-09-17T10:53:14;11.40;99.90
8856;DHT22;4464;50.882;4.730;2022-09-17T10:55:44;11.50;99.90
8856;DHT22;4464;50.882;4.730;2022-09-17T10:58:23;11.60;99.90
8856;DHT22;4464;50.882;4.730;2022-09-17T11:09:20;13.00;99.90
8856;DHT22;4464;50.882;4.730;2022-09-17T11:17:47;12.50;99.90
8856;DHT22;4464;50.882;4.730;2022-09-17T11:20:40;12.40;99.90
8856;DHT22;4464;50.882;4.730;2022-09-17T11:23:21;12.50;99.90
8856;DHT22;4464;50.882;4.730;2022-09-17T11:25:57;12.50;99.90
8856;DHT22;4464;50.882;4.730;2022-09-17T11:34:28;12.30;99.90
8856;DHT22;4464;50.882;4.730;2022-09-17T11:43:01;12.60;99.90
8856;DHT22;4464;50.882;4.730;2022-09-17T11:46:13;12.50;99.90
8856;DHT22;4464;50.882;4.730;2022-09-17T11:48:22;12.40;99.90
8856;DHT22;4464;50.882;4.730;2022-09-17T11:51:38;12.50;99.90
8856;DHT22;4464;50.882;4.730;2022-09-17T11:53:48;12.60;99.90
8856;DHT22;4464;50.882;4.730;2022-09-17T11:56:35;12.60;99.90
8856;DHT22;4464;50.882;4.730;2022-09-17T12:01:57;13.20;99.90
8856;DHT22;4464;50.882;4.730;2022-09-17T12:04:43;13.60;99.90
8856;DHT22;4464;50.882;4.730;2022-09-17T12:09:43;14.40;99.90
8856;DHT22;4464;50.882;4.730;2022-09-17T12:12:16;15.70;99.90
8856;DHT22;4464;50.882;4.730;2022-09-17T12:14:52;17.40;99.90
8856;DHT22;4464;50.882;4.730;2022-09-17T12:17:36;17.80;99.90
8856;DHT22;4464;50.882;4.730;2022-09-17T12:20:32;16.30;99.90
8856;DHT22;4464;50.882;4.730;2022-09-17T12:22:57;16.30;99.90
8856;DHT22;4464;50.882;4.730;2022-09-17T12:25:31;17.10;99.90
8856;DHT22;4464;50.882;4.730;2022-09-17T12:28:09;17.90;99.90
8856;DHT22;4464;50.882;4.730;2022-09-17T12:30:41;17.70;99.90
8856;DHT22;4464;50.882;4.730;2022-09-17T12:36:08;18.70;99.90
8856;DHT22;4464;50.882;4.730;2022-09-17T12:41:48;19.20;99.90
8856;DHT22;4464;50.882;4.730;2022-09-17T12:50:27;20.00;99.90
8856;DHT22;4464;50.882;4.730;2022-09-17T13:01:07;21.30;99.90
8856;DHT22;4464;50.882;4.730;2022-09-17T13:03:58;21.20;99.90
8856;DHT22;4464;50.882;4.730;2022-09-17T13:15:02;16.80;99.90
8856;DHT22;4464;50.882;4.730;2022-09-17T13:21:02;18.90;99.90
8856;DHT22;4464;50.882;4.730;2022-09-17T13:23:36;20.20;99.90
8856;DHT22;4464;50.882;4.730;2022-09-17T13:26:02;20.80;99.90
8856;DHT22;4464;50.882;4.730;2022-09-17T13:28:48;21.00;99.90
8856;DHT22;4464;50.882;4.730;2022-09-17T13:34:25;20.50;99.90
8856;DHT22;4464;50.882;4.730;2022-09-17T13:36:53;21.00;99.90
8856;DHT22;4464;50.882;4.730;2022-09-17T13:45:02;21.40;99.90
8856;DHT22;4464;50.882;4.730;2022-09-17T13:50:27;21.80;99.90
8856;DHT22;4464;50.882;4.730;2022-09-17T13:53:05;21.30;99.90
8856;DHT22;4464;50.882;4.730;2022-09-17T13:55:50;20.20;99.90
8856;DHT22;4464;50.882;4.730;2022-09-17T14:05:53;14.80;99.90
8856;DHT22;4464;50.882;4.730;2022-09-17T14:08:27;14.20;99.90
8856;DHT22;4464;50.882;4.730;2022-09-17T14:10:58;13.80;99.90
8856;DHT22;4464;50.882;4.730;2022-09-17T14:16:25;14.30;99.90
8856;DHT22;4464;50.882;4.730;2022-09-17T14:19:47;15.00;99.90
8856;DHT22;4464;50.882;4.730;2022-09-17T14:22:24;16.20;99.90
8856;DHT22;4464;50.882;4.730;2022-09-17T14:24:53;17.40;99.90
8856;DHT22;4464;50.882;4.730;2022-09-17T14:30:42;19.00;99.90
8856;DHT22;4464;50.882;4.730;2022-09-17T14:33:15;19.20;99.90
8856;DHT22;4464;50.882;4.730;2022-09-17T14:35:44;19.10;99.90
8856;DHT22;4464;50.882;4.730;2022-09-17T14:38:19;19.40;99.90
8856;DHT22;4464;50.882;4.730;2022-09-17T14:40:58;19.90;99.90
8856;DHT22;4464;50.882;4.730;2022-09-17T14:46:29;20.20;99.90
8856;DHT22;4464;50.882;4.730;2022-09-17T14:49:32;19.80;99.90
8856;DHT22;4464;50.882;4.730;2022-09-17T14:51:59;19.40;99.90
8856;DHT22;4464;50.882;4.730;2022-09-17T14:54:32;19.00;99.90
8856;DHT22;4464;50.882;4.730;2022-09-17T14:57:03;19.40;99.90
8856;DHT22;4464;50.882;4.730;2022-09-17T14:59:48;20.00;99.90
8856;DHT22;4464;50.882;4.730;2022-09-17T15:02:43;20.60;99.90
8856;DHT22;4464;50.882;4.730;2022-09-17T15:05:29;21.20;99.90
8856;DHT22;4464;50.882;4.730;2022-09-17T15:11:03;20.60;99.90
8856;DHT22;4464;50.882;4.730;2022-09-17T15:13:40;18.80;99.90
8856;DHT22;4464;50.882;4.730;2022-09-17T15:16:21;18.00;99.90
8856;DHT22;4464;50.882;4.730;2022-09-17T15:19:02;17.20;99.90
8856;DHT22;4464;50.882;4.730;2022-09-17T15:24:17;16.10;99.90
8856;DHT22;4464;50.882;4.730;2022-09-17T15:26:48;15.90;99.90
8856;DHT22;4464;50.882;4.730;2022-09-17T15:29:25;15.70;99.90
8856;DHT22;4464;50.882;4.730;2022-09-17T15:31:53;15.30;99.90
8856;DHT22;4464;50.882;4.730;2022-09-17T15:34:19;15.20;99.90
8856;DHT22;4464;50.882;4.730;2022-09-17T15:39:40;14.80;99.90
8856;DHT22;4464;50.882;4.730;2022-09-17T15:42:24;14.70;99.90
8856;DHT22;4464;50.882;4.730;2022-09-17T15:44:51;14.60;99.90
8856;DHT22;4464;50.882;4.730;2022-09-17T15:47:47;14.50;99.90
8856;DHT22;4464;50.882;4.730;2022-09-17T15:50:21;14.30;99.90
8856;DHT22;4464;50.882;4.730;2022-09-17T15:52:48;14.30;99.90
8856;DHT22;4464;50.882;4.730;2022-09-17T16:08:58;13.90;99.90
8856;DHT22;4464;50.882;4.730;2022-09-17T16:11:34;13.90;99.90
8856;DHT22;4464;50.882;4.730;2022-09-17T16:14:00;13.80;99.90
8856;DHT22;4464;50.882;4.730;2022-09-17T16:16:32;13.70;99.90
8856;DHT22;4464;50.882;4.730;2022-09-17T16:18:58;13.60;99.90
8856;DHT22;4464;50.882;4.730;2022-09-17T16:21:24;13.70;99.90
8856;DHT22;4464;50.882;4.730;2022-09-17T16:23:50;13.70;99.90
8856;DHT22;4464;50.882;4.730;2022-09-17T16:26:53;13.70;99.90
8856;DHT22;4464;50.882;4.730;2022-09-17T16:29:15;13.80;99.90
8856;DHT22;4464;50.882;4.730;2022-09-17T16:31:41;13.80;99.90
8856;DHT22;4464;50.882;4.730;2022-09-17T16:34:09;13.90;99.90
8856;DHT22;4464;50.882;4.730;2022-09-17T16:36:38;13.90;99.90
8856;DHT22;4464;50.882;4.730;2022-09-17T16:39:04;13.90;99.90
8856;DHT22;4464;50.882;4.730;2022-09-17T16:41:33;13.90;99.90
8856;DHT22;4464;50.882;4.730;2022-09-17T16:43:58;13.60;99.90
8856;DHT22;4464;50.882;4.730;2022-09-17T16:46:24;13.50;99.90
8856;DHT22;4464;50.882;4.730;2022-09-17T16:48:50;13.50;99.90
8856;DHT22;4464;50.882;4.730;2022-09-17T16:51:17;13.50;99.90
8856;DHT22;4464;50.882;4.730;2022-09-17T16:53:45;13.40;99.90
8856;DHT22;4464;50.882;4.730;2022-09-17T16:56:14;13.50;99.90
8856;DHT22;4464;50.882;4.730;2022-09-17T16:58:40;13.40;99.90
8856;DHT22;4464;50.882;4.730;2022-09-17T17:01:12;13.40;99.90
8856;DHT22;4464;50.882;4.730;2022-09-17T17:03:41;13.30;99.90
8856;DHT22;4464;50.882;4.730;2022-09-17T17:06:18;13.40;99.90
8856;DHT22;4464;50.882;4.730;2022-09-17T17:08:44;13.40;99.90
8856;DHT22;4464;50.882;4.730;2022-09-17T17:11:10;13.50;99.90
8856;DHT22;4464;50.882;4.730;2022-09-17T17:13:36;13.40;99.90
8856;DHT22;4464;50.882;4.730;2022-09-17T17:16:06;13.30;99.90
8856;DHT22;4464;50.882;4.730;2022-09-17T17:18:34;13.30;99.90
8856;DHT22;4464;50.882;4.730;2022-09-17T17:21:11;13.20;99.90
8856;DHT22;4464;50.882;4.730;2022-09-17T17:23:37;13.10;99.90
8856;DHT22;4464;50.882;4.730;2022-09-17T17:26:04;13.10;99.90
8856;DHT22;4464;50.882;4.730;2022-09-17T17:28:31;13.10;99.90
8856;DHT22;4464;50.882;4.730;2022-09-17T17:31:00;13.10;99.90
8856;DHT22;4464;50.882;4.730;2022-09-17T17:33:26;13.00;99.90
8856;DHT22;4464;50.882;4.730;2022-09-17T17:35:52;12.90;99.90
8856;DHT22;4464;50.882;4.730;2022-09-17T17:38:18;12.90;99.90
8856;DHT22;4464;50.882;4.730;2022-09-17T17:40:46;12.80;99.90
8856;DHT22;4464;50.882;4.730;2022-09-17T17:43:14;12.80;99.90
8856;DHT22;4464;50.882;4.730;2022-09-17T17:45:40;12.80;99.90
8856;DHT22;4464;50.882;4.730;2022-09-17T17:48:08;12.80;99.90
8856;DHT22;4464;50.882;4.730;2022-09-17T17:50:34;12.70;99.90
8856;DHT22;4464;50.882;4.730;2022-09-17T17:53:00;12.70;99.90
8856;DHT22;4464;50.882;4.730;2022-09-17T17:55:26;12.60;99.90
8856;DHT22;4464;50.882;4.730;2022-09-17T17:57:55;12.50;99.90
8856;DHT22;4464;50.882;4.730;2022-09-17T18:00:22;12.50;99.90
8856;DHT22;4464;50.882;4.730;2022-09-17T18:02:49;12.40;99.90
8856;DHT22;4464;50.882;4.730;2022-09-17T18:05:16;12.40;99.90
8856;DHT22;4464;50.882;4.730;2022-09-17T18:07:43;12.30;99.90
8856;DHT22;4464;50.882;4.730;2022-09-17T18:10:09;12.30;99.90
8856;DHT22;4464;50.882;4.730;2022-09-17T18:12:35;12.20;99.90
8856;DHT22;4464;50.882;4.730;2022-09-17T18:15:02;12.20;99.90
8856;DHT22;4464;50.882;4.730;2022-09-17T18:17:30;12.10;99.90
8856;DHT22;4464;50.882;4.730;2022-09-17T18:19:57;12.10;99.90
8856;DHT22;4464;50.882;4.730;2022-09-17T18:22:23;12.10;99.90
8856;DHT22;4464;50.882;4.730;2022-09-17T18:24:49;12.00;99.90
8856;DHT22;4464;50.882;4.730;2022-09-17T18:27:14;12.00;99.90
8856;DHT22;4464;50.882;4.730;2022-09-17T18:29:40;12.00;99.90
8856;DHT22;4464;50.882;4.730;2022-09-17T18:32:06;11.90;99.90
8856;DHT22;4464;50.882;4.730;2022-09-17T18:34:33;11.90;99.90
8856;DHT22;4464;50.882;4.730;2022-09-17T18:37:00;12.00;99.90
8856;DHT22;4464;50.882;4.730;2022-09-17T18:39:26;12.00;99.90
8856;DHT22;4464;50.882;4.730;2022-09-17T18:41:52;12.00;99.90
8856;DHT22;4464;50.882;4.730;2022-09-17T18:44:22;12.00;99.90
8856;DHT22;4464;50.882;4.730;2022-09-17T18:46:50;12.00;99.90
8856;DHT22;4464;50.882;4.730;2022-09-17T18:49:16;12.00;99.90
8856;DHT22;4464;50.882;4.730;2022-09-17T18:51:42;12.00;99.90
8856;DHT22;4464;50.882;4.730;2022-09-17T18:54:09;12.00;99.90
8856;DHT22;4464;50.882;4.730;2022-09-17T18:56:35;12.00;99.90
8856;DHT22;4464;50.882;4.730;2022-09-17T18:59:01;12.00;99.90
8856;DHT22;4464;50.882;4.730;2022-09-17T19:01:30;12.00;99.90
8856;DHT22;4464;50.882;4.730;2022-09-17T19:03:57;12.00;99.90
8856;DHT22;4464;50.882;4.730;2022-09-17T19:06:24;12.00;99.90
8856;DHT22;4464;50.882;4.730;2022-09-17T19:08:53;12.10;99.90
8856;DHT22;4464;50.882;4.730;2022-09-17T19:11:20;12.00;99.90
8856;DHT22;4464;50.882;4.730;2022-09-17T19:13:47;12.00;99.90
8856;DHT22;4464;50.882;4.730;2022-09-17T19:16:15;11.90;99.90
8856;DHT22;4464;50.882;4.730;2022-09-17T19:18:41;11.90;99.90
8856;DHT22;4464;50.882;4.730;2022-09-17T19:21:15;11.90;99.90
8856;DHT22;4464;50.882;4.730;2022-09-17T19:23:45;11.80;99.90
8856;DHT22;4464;50.882;4.730;2022-09-17T19:26:20;11.80;99.90
8856;DHT22;4464;50.882;4.730;2022-09-17T19:28:56;11.80;99.90
8856;DHT22;4464;50.882;4.730;2022-09-17T19:31:23;11.80;99.90
8856;DHT22;4464;50.882;4.730;2022-09-17T19:33:51;11.80;99.90
8856;DHT22;4464;50.882;4.730;2022-09-17T19:36:20;11.80;99.90
8856;DHT22;4464;50.882;4.730;2022-09-17T19:38:49;11.80;99.90